sensor_id;sensor_type;location;lat;lon;timestamp;P1;durP1;ratioP1;P2;durP2;ratioP2
11002;SDS011;5554;55.796;13.090;2022-08-04T00:01:19;14.10;;;13.70;;
11002;SDS011;5554;55.796;13.090;2022-08-04T00:03:51;13.60;;;13.20;;
11002;SDS011;5554;55.796;13.090;2022-08-04T00:06:29;13.37;;;12.97;;
11002;SDS011;5554;55.796;13.090;2022-08-04T00:09:05;15.03;;;14.63;;
11002;SDS011;5554;55.796;13.090;2022-08-04T00:11:49;13.03;;;12.63;;
11002;SDS011;5554;55.796;13.090;2022-08-04T00:14:21;13.67;;;13.27;;
11002;SDS011;5554;55.796;13.090;2022-08-04T00:16:50;13.13;;;12.73;;
11002;SDS011;5554;55.796;13.090;2022-08-04T00:19:23;12.17;;;11.87;;
11002;SDS011;5554;55.796;13.090;2022-08-04T00:21:59;12.70;;;12.30;;
11002;SDS011;5554;55.796;13.090;2022-08-04T00:24:43;13.17;;;12.77;;
11002;SDS011;5554;55.796;13.090;2022-08-04T00:27:11;12.83;;;12.43;;
11002;SDS011;5554;55.796;13.090;2022-08-04T00:29:39;13.33;;;12.93;;
11002;SDS011;5554;55.796;13.090;2022-08-04T00:32:07;13.43;;;13.03;;
11002;SDS011;5554;55.796;13.090;2022-08-04T00:34:34;13.27;;;12.87;;
11002;SDS011;5554;55.796;13.090;2022-08-04T00:37:03;12.67;;;12.27;;
11002;SDS011;5554;55.796;13.090;2022-08-04T00:39:33;14.17;;;13.77;;
11002;SDS011;5554;55.796;13.090;2022-08-04T00:45:06;12.93;;;12.53;;
11002;SDS011;5554;55.796;13.090;2022-08-04T00:47:51;14.27;;;13.87;;
11002;SDS011;5554;55.796;13.090;2022-08-04T00:53:12;14.90;;;14.50;;
11002;SDS011;5554;55.796;13.090;2022-08-04T00:55:57;12.87;;;12.47;;
11002;SDS011;5554;55.796;13.090;2022-08-04T00:58:41;14.00;;;13.60;;
11002;SDS011;5554;55.796;13.090;2022-08-04T01:01:18;12.87;;;12.47;;
11002;SDS011;5554;55.796;13.090;2022-08-04T01:04:02;12.23;;;11.93;;
11002;SDS011;5554;55.796;13.090;2022-08-04T01:06:34;14.03;;;13.63;;
11002;SDS011;5554;55.796;13.090;2022-08-04T01:12:01;14.33;;;13.93;;
11002;SDS011;5554;55.796;13.090;2022-08-04T01:15:02;14.27;;;13.87;;
11002;SDS011;5554;55.796;13.090;2022-08-04T01:17:40;13.60;;;13.20;;
11002;SDS011;5554;55.796;13.090;2022-08-04T01:20:18;14.47;;;14.07;;
11002;SDS011;5554;55.796;13.090;2022-08-04T01:23:04;13.50;;;13.10;;
11002;SDS011;5554;55.796;13.090;2022-08-04T01:25:52;15.50;;;15.07;;
11002;SDS011;5554;55.796;13.090;2022-08-04T01:28:35;13.57;;;13.17;;
11002;SDS011;5554;55.796;13.090;2022-08-04T01:31:15;12.07;;;11.77;;
11002;SDS011;5554;55.796;13.090;2022-08-04T01:33:46;13.93;;;13.53;;
11002;SDS011;5554;55.796;13.090;2022-08-04T01:36:15;13.33;;;12.93;;
11002;SDS011;5554;55.796;13.090;2022-08-04T01:38:47;13.30;;;12.90;;
11002;SDS011;5554;55.796;13.090;2022-08-04T01:41:14;13.40;;;13.00;;
11002;SDS011;5554;55.796;13.090;2022-08-04T01:43:45;13.03;;;12.63;;
11002;SDS011;5554;55.796;13.090;2022-08-04T01:46:14;13.03;;;12.63;;
11002;SDS011;5554;55.796;13.090;2022-08-04T01:48:43;13.63;;;13.23;;
11002;SDS011;5554;55.796;13.090;2022-08-04T01:51:11;13.50;;;13.10;;
11002;SDS011;5554;55.796;13.090;2022-08-04T01:53:40;13.40;;;13.00;;
11002;SDS011;5554;55.796;13.090;2022-08-04T01:56:09;13.70;;;13.30;;
11002;SDS011;5554;55.796;13.090;2022-08-04T01:58:37;13.37;;;12.97;;
11002;SDS011;5554;55.796;13.090;2022-08-04T02:01:11;13.37;;;12.97;;
11002;SDS011;5554;55.796;13.090;2022-08-04T02:03:40;13.30;;;12.90;;
11002;SDS011;5554;55.796;13.090;2022-08-04T02:06:10;15.20;;;14.80;;
11002;SDS011;5554;55.796;13.090;2022-08-04T02:08:49;13.00;;;12.60;;
11002;SDS011;5554;55.796;13.090;2022-08-04T02:11:32;14.07;;;13.67;;
11002;SDS011;5554;55.796;13.090;2022-08-04T02:14:03;14.73;;;14.33;;
11002;SDS011;5554;55.796;13.090;2022-08-04T02:16:39;13.23;;;12.83;;
11002;SDS011;5554;55.796;13.090;2022-08-04T02:19:14;12.97;;;12.57;;
11002;SDS011;5554;55.796;13.090;2022-08-04T02:21:55;14.37;;;13.97;;
11002;SDS011;5554;55.796;13.090;2022-08-04T02:24:34;13.37;;;12.97;;
11002;SDS011;5554;55.796;13.090;2022-08-04T02:27:08;13.70;;;13.20;;
11002;SDS011;5554;55.796;13.090;2022-08-04T02:29:38;13.37;;;12.97;;
11002;SDS011;5554;55.796;13.090;2022-08-04T02:32:12;14.20;;;13.80;;
11002;SDS011;5554;55.796;13.090;2022-08-04T02:34:56;13.00;;;12.60;;
11002;SDS011;5554;55.796;13.090;2022-08-04T02:37:28;12.43;;;12.07;;
11002;SDS011;5554;55.796;13.090;2022-08-04T02:39:58;14.33;;;13.93;;
11002;SDS011;5554;55.796;13.090;2022-08-04T02:42:26;14.90;;;14.50;;
11002;SDS011;5554;55.796;13.090;2022-08-04T02:44:56;12.70;;;12.30;;
11002;SDS011;5554;55.796;13.090;2022-08-04T02:47:25;12.07;;;11.77;;
11002;SDS011;5554;55.796;13.090;2022-08-04T02:49:53;13.43;;;13.03;;
11002;SDS011;5554;55.796;13.090;2022-08-04T02:52:23;11.67;;;11.37;;
11002;SDS011;5554;55.796;13.090;2022-08-04T02:54:52;12.17;;;11.87;;
11002;SDS011;5554;55.796;13.090;2022-08-04T02:57:21;14.40;;;14.00;;
11002;SDS011;5554;55.796;13.090;2022-08-04T03:00:02;12.23;;;11.93;;
11002;SDS011;5554;55.796;13.090;2022-08-04T03:02:37;12.10;;;11.80;;
11002;SDS011;5554;55.796;13.090;2022-08-04T03:05:17;12.07;;;11.77;;
11002;SDS011;5554;55.796;13.090;2022-08-04T03:11:12;13.90;;;13.50;;
11002;SDS011;5554;55.796;13.090;2022-08-04T03:14:20;14.13;;;13.73;;
11002;SDS011;5554;55.796;13.090;2022-08-04T03:20:13;12.13;;;11.83;;
11002;SDS011;5554;55.796;13.090;2022-08-04T03:26:25;13.50;;;13.10;;
11002;SDS011;5554;55.796;13.090;2022-08-04T03:32:20;12.10;;;11.80;;
11002;SDS011;5554;55.796;13.090;2022-08-04T03:35:22;12.50;;;12.10;;
11002;SDS011;5554;55.796;13.090;2022-08-04T03:38:06;12.90;;;12.50;;
11002;SDS011;5554;55.796;13.090;2022-08-04T03:44:04;12.93;;;12.53;;
11002;SDS011;5554;55.796;13.090;2022-08-04T03:47:05;13.47;;;13.07;;
11002;SDS011;5554;55.796;13.090;2022-08-04T03:50:24;12.27;;;11.93;;
11002;SDS011;5554;55.796;13.090;2022-08-04T03:53:20;12.77;;;12.37;;
11002;SDS011;5554;55.796;13.090;2022-08-04T04:02:03;13.20;;;12.80;;
11002;SDS011;5554;55.796;13.090;2022-08-04T04:05:03;12.83;;;12.43;;
11002;SDS011;5554;55.796;13.090;2022-08-04T04:08:01;12.53;;;12.13;;
11002;SDS011;5554;55.796;13.090;2022-08-04T04:10:56;13.23;;;12.83;;
11002;SDS011;5554;55.796;13.090;2022-08-04T04:13:48;12.90;;;12.50;;
11002;SDS011;5554;55.796;13.090;2022-08-04T04:16:34;13.23;;;12.83;;
11002;SDS011;5554;55.796;13.090;2022-08-04T04:19:21;14.50;;;14.10;;
11002;SDS011;5554;55.796;13.090;2022-08-04T04:21:57;14.10;;;13.70;;
11002;SDS011;5554;55.796;13.090;2022-08-04T04:24:42;13.40;;;13.00;;
11002;SDS011;5554;55.796;13.090;2022-08-04T04:27:24;13.10;;;12.70;;
11002;SDS011;5554;55.796;13.090;2022-08-04T04:30:06;12.57;;;12.17;;
11002;SDS011;5554;55.796;13.090;2022-08-04T04:32:45;12.77;;;12.37;;
11002;SDS011;5554;55.796;13.090;2022-08-04T04:35:30;13.23;;;12.83;;
11002;SDS011;5554;55.796;13.090;2022-08-04T04:38:13;13.67;;;13.27;;
11002;SDS011;5554;55.796;13.090;2022-08-04T04:41:14;14.07;;;13.67;;
11002;SDS011;5554;55.796;13.090;2022-08-04T04:44:08;14.23;;;13.83;;
11002;SDS011;5554;55.796;13.090;2022-08-04T04:47:00;13.67;;;13.27;;
11002;SDS011;5554;55.796;13.090;2022-08-04T04:49:36;13.57;;;13.17;;
11002;SDS011;5554;55.796;13.090;2022-08-04T04:52:12;13.47;;;13.07;;
11002;SDS011;5554;55.796;13.090;2022-08-04T04:54:50;13.83;;;13.43;;
11002;SDS011;5554;55.796;13.090;2022-08-04T04:57:25;13.00;;;12.60;;
11002;SDS011;5554;55.796;13.090;2022-08-04T05:00:01;13.60;;;13.20;;
11002;SDS011;5554;55.796;13.090;2022-08-04T05:05:59;12.83;;;12.43;;
11002;SDS011;5554;55.796;13.090;2022-08-04T05:08:44;13.00;;;12.60;;
11002;SDS011;5554;55.796;13.090;2022-08-04T05:12:51;12.73;;;12.33;;
11002;SDS011;5554;55.796;13.090;2022-08-04T05:14:52;13.33;;;12.93;;
11002;SDS011;5554;55.796;13.090;2022-08-04T05:17:24;12.80;;;12.40;;
11002;SDS011;5554;55.796;13.090;2022-08-04T05:19:54;13.20;;;12.80;;
11002;SDS011;5554;55.796;13.090;2022-08-04T05:22:27;13.40;;;13.00;;
11002;SDS011;5554;55.796;13.090;2022-08-04T05:25:02;13.83;;;13.43;;
11002;SDS011;5554;55.796;13.090;2022-08-04T05:27:34;13.40;;;13.00;;
11002;SDS011;5554;55.796;13.090;2022-08-04T05:30:06;13.10;;;12.70;;
11002;SDS011;5554;55.796;13.090;2022-08-04T05:32:37;14.60;;;14.20;;
11002;SDS011;5554;55.796;13.090;2022-08-04T05:35:19;13.37;;;12.97;;
11002;SDS011;5554;55.796;13.090;2022-08-04T05:37:50;10.97;;;10.67;;
11002;SDS011;5554;55.796;13.090;2022-08-04T05:40:19;12.03;;;11.73;;
11002;SDS011;5554;55.796;13.090;2022-08-04T05:42:49;12.03;;;11.73;;
11002;SDS011;5554;55.796;13.090;2022-08-04T05:45:20;11.67;;;11.37;;
11002;SDS011;5554;55.796;13.090;2022-08-04T05:47:48;11.80;;;11.50;;
11002;SDS011;5554;55.796;13.090;2022-08-04T05:50:18;13.27;;;12.87;;
11002;SDS011;5554;55.796;13.090;2022-08-04T05:52:45;12.87;;;12.47;;
11002;SDS011;5554;55.796;13.090;2022-08-04T05:55:14;12.77;;;12.37;;
11002;SDS011;5554;55.796;13.090;2022-08-04T05:57:46;13.07;;;12.67;;
11002;SDS011;5554;55.796;13.090;2022-08-04T06:00:14;11.17;;;10.87;;
11002;SDS011;5554;55.796;13.090;2022-08-04T06:02:47;11.97;;;11.67;;
11002;SDS011;5554;55.796;13.090;2022-08-04T06:05:16;11.87;;;11.57;;
11002;SDS011;5554;55.796;13.090;2022-08-04T06:07:44;11.80;;;11.50;;
11002;SDS011;5554;55.796;13.090;2022-08-04T06:10:11;12.00;;;11.70;;
11002;SDS011;5554;55.796;13.090;2022-08-04T06:12:52;12.10;;;11.80;;
11002;SDS011;5554;55.796;13.090;2022-08-04T06:15:21;11.97;;;11.67;;
11002;SDS011;5554;55.796;13.090;2022-08-04T06:17:54;12.67;;;12.27;;
11002;SDS011;5554;55.796;13.090;2022-08-04T06:20:28;12.70;;;12.30;;
11002;SDS011;5554;55.796;13.090;2022-08-04T06:22:58;13.33;;;12.93;;
11002;SDS011;5554;55.796;13.090;2022-08-04T06:25:28;11.83;;;11.53;;
11002;SDS011;5554;55.796;13.090;2022-08-04T06:27:58;13.47;;;13.07;;
11002;SDS011;5554;55.796;13.090;2022-08-04T06:30:32;13.30;;;12.90;;
11002;SDS011;5554;55.796;13.090;2022-08-04T06:33:02;12.37;;;12.03;;
11002;SDS011;5554;55.796;13.090;2022-08-04T06:35:38;13.20;;;12.80;;
11002;SDS011;5554;55.796;13.090;2022-08-04T06:38:05;13.10;;;12.70;;
11002;SDS011;5554;55.796;13.090;2022-08-04T06:40:34;12.77;;;12.37;;
11002;SDS011;5554;55.796;13.090;2022-08-04T06:43:02;12.13;;;11.83;;
11002;SDS011;5554;55.796;13.090;2022-08-04T06:45:32;12.17;;;11.87;;
11002;SDS011;5554;55.796;13.090;2022-08-04T06:48:04;13.13;;;12.73;;
11002;SDS011;5554;55.796;13.090;2022-08-04T06:50:32;12.27;;;11.93;;
11002;SDS011;5554;55.796;13.090;2022-08-04T06:53:15;11.80;;;11.50;;
11002;SDS011;5554;55.796;13.090;2022-08-04T06:55:44;11.73;;;11.43;;
11002;SDS011;5554;55.796;13.090;2022-08-04T06:58:12;13.07;;;12.67;;
11002;SDS011;5554;55.796;13.090;2022-08-04T07:00:42;12.47;;;12.07;;
11002;SDS011;5554;55.796;13.090;2022-08-04T07:03:12;13.10;;;12.70;;
11002;SDS011;5554;55.796;13.090;2022-08-04T07:05:41;13.33;;;12.93;;
11002;SDS011;5554;55.796;13.090;2022-08-04T07:08:09;12.27;;;11.97;;
11002;SDS011;5554;55.796;13.090;2022-08-04T07:10:37;12.53;;;12.13;;
11002;SDS011;5554;55.796;13.090;2022-08-04T07:13:05;12.97;;;12.57;;
11002;SDS011;5554;55.796;13.090;2022-08-04T07:15:40;12.20;;;11.90;;
11002;SDS011;5554;55.796;13.090;2022-08-04T07:18:09;12.17;;;11.87;;
11002;SDS011;5554;55.796;13.090;2022-08-04T07:20:52;12.23;;;11.93;;
11002;SDS011;5554;55.796;13.090;2022-08-04T07:23:22;11.40;;;11.10;;
11002;SDS011;5554;55.796;13.090;2022-08-04T07:25:53;11.60;;;11.30;;
11002;SDS011;5554;55.796;13.090;2022-08-04T07:28:23;12.23;;;11.93;;
11002;SDS011;5554;55.796;13.090;2022-08-04T07:30:52;12.80;;;12.40;;
11002;SDS011;5554;55.796;13.090;2022-08-04T07:33:26;12.63;;;12.23;;
11002;SDS011;5554;55.796;13.090;2022-08-04T07:35:54;12.23;;;11.90;;
11002;SDS011;5554;55.796;13.090;2022-08-04T07:38:22;13.67;;;13.27;;
11002;SDS011;5554;55.796;13.090;2022-08-04T07:40:49;13.60;;;13.20;;
11002;SDS011;5554;55.796;13.090;2022-08-04T07:43:16;12.67;;;12.27;;
11002;SDS011;5554;55.796;13.090;2022-08-04T07:45:46;13.50;;;13.10;;
11002;SDS011;5554;55.796;13.090;2022-08-04T07:48:24;13.40;;;13.00;;
11002;SDS011;5554;55.796;13.090;2022-08-04T07:50:51;13.70;;;13.30;;
11002;SDS011;5554;55.796;13.090;2022-08-04T07:53:18;13.83;;;13.43;;
11002;SDS011;5554;55.796;13.090;2022-08-04T07:55:47;13.57;;;13.17;;
11002;SDS011;5554;55.796;13.090;2022-08-04T07:58:15;13.03;;;12.63;;
11002;SDS011;5554;55.796;13.090;2022-08-04T08:00:43;13.00;;;12.60;;
11002;SDS011;5554;55.796;13.090;2022-08-04T08:03:11;14.30;;;13.87;;
11002;SDS011;5554;55.796;13.090;2022-08-04T08:05:42;15.13;;;14.37;;
11002;SDS011;5554;55.796;13.090;2022-08-04T08:08:16;15.10;;;14.70;;
11002;SDS011;5554;55.796;13.090;2022-08-04T08:10:45;13.03;;;12.63;;
11002;SDS011;5554;55.796;13.090;2022-08-04T08:13:13;13.80;;;13.40;;
11002;SDS011;5554;55.796;13.090;2022-08-04T08:15:42;13.83;;;13.43;;
11002;SDS011;5554;55.796;13.090;2022-08-04T08:18:11;13.57;;;13.17;;
11002;SDS011;5554;55.796;13.090;2022-08-04T08:20:38;13.77;;;13.37;;
11002;SDS011;5554;55.796;13.090;2022-08-04T08:23:07;13.57;;;13.17;;
11002;SDS011;5554;55.796;13.090;2022-08-04T08:25:34;14.07;;;13.67;;
11002;SDS011;5554;55.796;13.090;2022-08-04T08:28:18;14.03;;;13.63;;
11002;SDS011;5554;55.796;13.090;2022-08-04T08:30:54;14.10;;;13.70;;
11002;SDS011;5554;55.796;13.090;2022-08-04T08:33:29;15.43;;;13.98;;
11002;SDS011;5554;55.796;13.090;2022-08-04T08:36:28;12.88;;;12.48;;
11002;SDS011;5554;55.796;13.090;2022-08-04T08:39:03;13.50;;;13.10;;
11002;SDS011;5554;55.796;13.090;2022-08-04T08:44:44;14.60;;;14.20;;
11002;SDS011;5554;55.796;13.090;2022-08-04T08:47:32;15.30;;;14.90;;
11002;SDS011;5554;55.796;13.090;2022-08-04T08:53:24;16.25;;;15.48;;
11002;SDS011;5554;55.796;13.090;2022-08-04T08:56:10;14.35;;;13.95;;
11002;SDS011;5554;55.796;13.090;2022-08-04T08:58:48;18.58;;;17.85;;
11002;SDS011;5554;55.796;13.090;2022-08-04T09:01:42;16.73;;;16.23;;
11002;SDS011;5554;55.796;13.090;2022-08-04T09:07:27;16.75;;;16.25;;
11002;SDS011;5554;55.796;13.090;2022-08-04T09:10:15;16.88;;;16.38;;
11002;SDS011;5554;55.796;13.090;2022-08-04T09:12:49;17.02;;;16.52;;
11002;SDS011;5554;55.796;13.090;2022-08-04T09:15:21;17.00;;;16.50;;
11002;SDS011;5554;55.796;13.090;2022-08-04T09:17:56;17.70;;;17.20;;
11002;SDS011;5554;55.796;13.090;2022-08-04T09:20:33;16.15;;;15.65;;
11002;SDS011;5554;55.796;13.090;2022-08-04T09:23:07;16.73;;;16.23;;
11002;SDS011;5554;55.796;13.090;2022-08-04T09:25:41;16.63;;;16.13;;
11002;SDS011;5554;55.796;13.090;2022-08-04T09:28:19;17.20;;;16.70;;
11002;SDS011;5554;55.796;13.090;2022-08-04T09:30:51;17.90;;;17.30;;
11002;SDS011;5554;55.796;13.090;2022-08-04T09:33:23;16.88;;;16.38;;
11002;SDS011;5554;55.796;13.090;2022-08-04T09:36:00;16.40;;;15.90;;
11002;SDS011;5554;55.796;13.090;2022-08-04T09:38:32;17.52;;;17.02;;
11002;SDS011;5554;55.796;13.090;2022-08-04T09:41:11;16.67;;;16.17;;
11002;SDS011;5554;55.796;13.090;2022-08-04T09:43:48;19.67;;;19.08;;
11002;SDS011;5554;55.796;13.090;2022-08-04T09:46:28;16.42;;;15.93;;
11002;SDS011;5554;55.796;13.090;2022-08-04T09:49:01;17.85;;;17.35;;
11002;SDS011;5554;55.796;13.090;2022-08-04T09:51:37;17.52;;;17.02;;
11002;SDS011;5554;55.796;13.090;2022-08-04T09:54:18;17.55;;;17.05;;
11002;SDS011;5554;55.796;13.090;2022-08-04T09:56:52;17.35;;;16.85;;
11002;SDS011;5554;55.796;13.090;2022-08-04T09:59:25;17.60;;;17.10;;
11002;SDS011;5554;55.796;13.090;2022-08-04T10:01:57;17.73;;;17.23;;
11002;SDS011;5554;55.796;13.090;2022-08-04T10:04:30;17.73;;;17.23;;
11002;SDS011;5554;55.796;13.090;2022-08-04T10:07:08;17.27;;;16.77;;
11002;SDS011;5554;55.796;13.090;2022-08-04T10:10:04;17.80;;;17.30;;
11002;SDS011;5554;55.796;13.090;2022-08-04T10:12:45;18.25;;;17.67;;
11002;SDS011;5554;55.796;13.090;2022-08-04T10:15:27;17.00;;;16.50;;
11002;SDS011;5554;55.796;13.090;2022-08-04T10:18:04;16.92;;;16.42;;
11002;SDS011;5554;55.796;13.090;2022-08-04T10:23:41;17.33;;;16.83;;
11002;SDS011;5554;55.796;13.090;2022-08-04T10:26:24;18.90;;;18.30;;
11002;SDS011;5554;55.796;13.090;2022-08-04T10:29:02;16.33;;;15.82;;
11002;SDS011;5554;55.796;13.090;2022-08-04T10:31:34;17.60;;;17.10;;
11002;SDS011;5554;55.796;13.090;2022-08-04T10:34:09;18.30;;;17.80;;
11002;SDS011;5554;55.796;13.090;2022-08-04T10:36:39;18.25;;;17.75;;
11002;SDS011;5554;55.796;13.090;2022-08-04T10:39:13;17.60;;;17.10;;
11002;SDS011;5554;55.796;13.090;2022-08-04T10:41:46;17.42;;;16.92;;
11002;SDS011;5554;55.796;13.090;2022-08-04T10:44:21;17.48;;;16.98;;
11002;SDS011;5554;55.796;13.090;2022-08-04T10:47:00;15.98;;;15.48;;
11002;SDS011;5554;55.796;13.090;2022-08-04T10:49:34;16.27;;;15.77;;
11002;SDS011;5554;55.796;13.090;2022-08-04T10:52:10;18.63;;;18.13;;
11002;SDS011;5554;55.796;13.090;2022-08-04T10:54:46;15.10;;;14.70;;
11002;SDS011;5554;55.796;13.090;2022-08-04T10:57:25;18.02;;;17.52;;
11002;SDS011;5554;55.796;13.090;2022-08-04T10:59:59;16.77;;;16.27;;
11002;SDS011;5554;55.796;13.090;2022-08-04T11:02:35;18.05;;;17.55;;
11002;SDS011;5554;55.796;13.090;2022-08-04T11:05:11;15.20;;;14.80;;
11002;SDS011;5554;55.796;13.090;2022-08-04T11:07:44;17.48;;;16.98;;
11002;SDS011;5554;55.796;13.090;2022-08-04T11:10:14;17.02;;;16.52;;
11002;SDS011;5554;55.796;13.090;2022-08-04T11:12:44;17.58;;;17.08;;
11002;SDS011;5554;55.796;13.090;2022-08-04T11:15:15;17.10;;;16.52;;
11002;SDS011;5554;55.796;13.090;2022-08-04T11:17:48;16.85;;;16.35;;
11002;SDS011;5554;55.796;13.090;2022-08-04T11:20:22;16.52;;;16.02;;
11002;SDS011;5554;55.796;13.090;2022-08-04T11:22:57;18.67;;;18.08;;
11002;SDS011;5554;55.796;13.090;2022-08-04T11:25:31;16.35;;;15.85;;
11002;SDS011;5554;55.796;13.090;2022-08-04T11:28:02;17.42;;;16.92;;
11002;SDS011;5554;55.796;13.090;2022-08-04T11:30:48;17.38;;;16.88;;
11002;SDS011;5554;55.796;13.090;2022-08-04T11:33:26;16.35;;;15.85;;
11002;SDS011;5554;55.796;13.090;2022-08-04T11:36:01;16.42;;;15.93;;
11002;SDS011;5554;55.796;13.090;2022-08-04T11:38:35;15.85;;;15.35;;
11002;SDS011;5554;55.796;13.090;2022-08-04T11:41:10;18.05;;;17.35;;
11002;SDS011;5554;55.796;13.090;2022-08-04T11:43:43;17.45;;;16.95;;
11002;SDS011;5554;55.796;13.090;2022-08-04T11:46:17;15.95;;;15.45;;
11002;SDS011;5554;55.796;13.090;2022-08-04T11:48:52;16.83;;;16.33;;
11002;SDS011;5554;55.796;13.090;2022-08-04T11:51:24;16.70;;;16.20;;
11002;SDS011;5554;55.796;13.090;2022-08-04T11:53:53;14.68;;;14.27;;
11002;SDS011;5554;55.796;13.090;2022-08-04T11:56:21;16.70;;;16.20;;
11002;SDS011;5554;55.796;13.090;2022-08-04T11:58:48;18.10;;;17.60;;
11002;SDS011;5554;55.796;13.090;2022-08-04T12:01:17;17.30;;;16.80;;
11002;SDS011;5554;55.796;13.090;2022-08-04T12:03:56;17.17;;;16.67;;
11002;SDS011;5554;55.796;13.090;2022-08-04T12:06:29;15.52;;;15.10;;
11002;SDS011;5554;55.796;13.090;2022-08-04T12:09:03;16.42;;;15.93;;
11002;SDS011;5554;55.796;13.090;2022-08-04T12:11:42;17.33;;;16.73;;
11002;SDS011;5554;55.796;13.090;2022-08-04T12:14:23;14.55;;;14.15;;
11002;SDS011;5554;55.796;13.090;2022-08-04T12:16:57;15.52;;;15.10;;
11002;SDS011;5554;55.796;13.090;2022-08-04T12:19:29;17.17;;;16.67;;
11002;SDS011;5554;55.796;13.090;2022-08-04T12:22:00;17.50;;;17.00;;
11002;SDS011;5554;55.796;13.090;2022-08-04T12:24:32;16.02;;;15.52;;
11002;SDS011;5554;55.796;13.090;2022-08-04T12:27:15;16.40;;;15.90;;
11002;SDS011;5554;55.796;13.090;2022-08-04T12:29:45;16.50;;;16.00;;
11002;SDS011;5554;55.796;13.090;2022-08-04T12:32:16;17.02;;;16.52;;
11002;SDS011;5554;55.796;13.090;2022-08-04T12:34:52;17.42;;;16.92;;
11002;SDS011;5554;55.796;13.090;2022-08-04T12:37:26;16.70;;;16.20;;
11002;SDS011;5554;55.796;13.090;2022-08-04T12:40:06;14.65;;;14.25;;
11002;SDS011;5554;55.796;13.090;2022-08-04T12:42:41;15.40;;;14.98;;
11002;SDS011;5554;55.796;13.090;2022-08-04T12:45:12;16.92;;;16.42;;
11002;SDS011;5554;55.796;13.090;2022-08-04T12:47:44;15.35;;;14.95;;
11002;SDS011;5554;55.796;13.090;2022-08-04T12:50:14;15.43;;;15.02;;
11002;SDS011;5554;55.796;13.090;2022-08-04T12:52:45;16.05;;;15.55;;
11002;SDS011;5554;55.796;13.090;2022-08-04T12:55:14;16.73;;;16.23;;
11002;SDS011;5554;55.796;13.090;2022-08-04T12:57:43;16.95;;;16.45;;
11002;SDS011;5554;55.796;13.090;2022-08-04T13:00:12;16.20;;;15.70;;
11002;SDS011;5554;55.796;13.090;2022-08-04T13:02:49;14.82;;;14.43;;
11002;SDS011;5554;55.796;13.090;2022-08-04T13:05:19;16.30;;;15.80;;
11002;SDS011;5554;55.796;13.090;2022-08-04T13:07:47;16.17;;;15.68;;
11002;SDS011;5554;55.796;13.090;2022-08-04T13:10:17;16.75;;;15.93;;
11002;SDS011;5554;55.796;13.090;2022-08-04T13:12:50;15.88;;;15.38;;
11002;SDS011;5554;55.796;13.090;2022-08-04T13:15:23;15.75;;;15.25;;
11002;SDS011;5554;55.796;13.090;2022-08-04T13:17:52;17.52;;;17.02;;
11002;SDS011;5554;55.796;13.090;2022-08-04T13:20:26;17.67;;;17.17;;
11002;SDS011;5554;55.796;13.090;2022-08-04T13:22:59;17.70;;;17.20;;
11002;SDS011;5554;55.796;13.090;2022-08-04T13:25:39;16.55;;;16.05;;
11002;SDS011;5554;55.796;13.090;2022-08-04T13:28:12;17.63;;;17.02;;
11002;SDS011;5554;55.796;13.090;2022-08-04T13:30:42;15.68;;;15.18;;
11002;SDS011;5554;55.796;13.090;2022-08-04T13:33:10;17.08;;;16.58;;
11002;SDS011;5554;55.796;13.090;2022-08-04T13:35:42;15.02;;;14.63;;
11002;SDS011;5554;55.796;13.090;2022-08-04T13:38:11;16.67;;;16.17;;
11002;SDS011;5554;55.796;13.090;2022-08-04T13:40:39;14.63;;;14.23;;
11002;SDS011;5554;55.796;13.090;2022-08-04T13:43:08;15.13;;;14.73;;
11002;SDS011;5554;55.796;13.090;2022-08-04T13:45:47;15.95;;;15.45;;
11002;SDS011;5554;55.796;13.090;2022-08-04T13:48:15;15.27;;;14.88;;
11002;SDS011;5554;55.796;13.090;2022-08-04T13:50:45;16.73;;;16.23;;
11002;SDS011;5554;55.796;13.090;2022-08-04T13:53:15;17.08;;;16.48;;
11002;SDS011;5554;55.796;13.090;2022-08-04T13:55:44;14.75;;;14.35;;
11002;SDS011;5554;55.796;13.090;2022-08-04T13:58:17;15.88;;;15.38;;
11002;SDS011;5554;55.796;13.090;2022-08-04T14:00:50;16.30;;;15.80;;
11002;SDS011;5554;55.796;13.090;2022-08-04T14:03:24;17.25;;;16.75;;
11002;SDS011;5554;55.796;13.090;2022-08-04T14:06:13;16.90;;;16.42;;
11002;SDS011;5554;55.796;13.090;2022-08-04T14:08:47;22.50;;;21.80;;
11002;SDS011;5554;55.796;13.090;2022-08-04T14:11:16;16.60;;;16.10;;
11002;SDS011;5554;55.796;13.090;2022-08-04T14:13:45;15.63;;;15.15;;
11002;SDS011;5554;55.796;13.090;2022-08-04T14:16:24;19.13;;;18.52;;
11002;SDS011;5554;55.796;13.090;2022-08-04T14:18:56;16.52;;;16.02;;
11002;SDS011;5554;55.796;13.090;2022-08-04T14:21:26;16.80;;;16.30;;
11002;SDS011;5554;55.796;13.090;2022-08-04T14:23:54;16.30;;;15.80;;
11002;SDS011;5554;55.796;13.090;2022-08-04T14:26:23;16.48;;;15.98;;
11002;SDS011;5554;55.796;13.090;2022-08-04T14:31:33;15.90;;;15.40;;
11002;SDS011;5554;55.796;13.090;2022-08-04T14:34:00;16.08;;;15.57;;
11002;SDS011;5554;55.796;13.090;2022-08-04T14:36:39;17.02;;;16.52;;
11002;SDS011;5554;55.796;13.090;2022-08-04T14:39:07;21.60;;;20.90;;
11002;SDS011;5554;55.796;13.090;2022-08-04T14:41:45;15.85;;;15.35;;
11002;SDS011;5554;55.796;13.090;2022-08-04T14:44:13;16.13;;;15.63;;
11002;SDS011;5554;55.796;13.090;2022-08-04T14:46:51;15.82;;;15.35;;
11002;SDS011;5554;55.796;13.090;2022-08-04T14:49:19;15.73;;;15.23;;
11002;SDS011;5554;55.796;13.090;2022-08-04T14:51:52;14.57;;;14.18;;
11002;SDS011;5554;55.796;13.090;2022-08-04T14:54:25;15.25;;;14.85;;
11002;SDS011;5554;55.796;13.090;2022-08-04T14:56:54;15.63;;;15.18;;
11002;SDS011;5554;55.796;13.090;2022-08-04T14:59:39;15.60;;;14.93;;
11002;SDS011;5554;55.796;13.090;2022-08-04T15:02:07;15.02;;;14.63;;
11002;SDS011;5554;55.796;13.090;2022-08-04T15:04:34;16.08;;;15.57;;
11002;SDS011;5554;55.796;13.090;2022-08-04T15:07:05;15.50;;;15.07;;
11002;SDS011;5554;55.796;13.090;2022-08-04T15:09:33;17.23;;;15.90;;
11002;SDS011;5554;55.796;13.090;2022-08-04T15:12:01;15.38;;;14.88;;
11002;SDS011;5554;55.796;13.090;2022-08-04T15:14:29;15.02;;;14.63;;
11002;SDS011;5554;55.796;13.090;2022-08-04T15:16:56;16.05;;;15.55;;
11002;SDS011;5554;55.796;13.090;2022-08-04T15:19:23;15.45;;;15.05;;
11002;SDS011;5554;55.796;13.090;2022-08-04T15:21:54;15.43;;;15.02;;
11002;SDS011;5554;55.796;13.090;2022-08-04T15:24:23;16.38;;;15.88;;
11002;SDS011;5554;55.796;13.090;2022-08-04T15:26:50;15.13;;;14.73;;
11002;SDS011;5554;55.796;13.090;2022-08-04T15:29:22;16.10;;;15.60;;
11002;SDS011;5554;55.796;13.090;2022-08-04T15:31:52;15.55;;;15.13;;
11002;SDS011;5554;55.796;13.090;2022-08-04T15:34:21;15.05;;;14.65;;
11002;SDS011;5554;55.796;13.090;2022-08-04T15:36:50;15.05;;;14.65;;
11002;SDS011;5554;55.796;13.090;2022-08-04T15:39:23;15.48;;;15.05;;
11002;SDS011;5554;55.796;13.090;2022-08-04T15:41:59;17.65;;;16.02;;
11002;SDS011;5554;55.796;13.090;2022-08-04T15:44:51;15.60;;;15.15;;
11002;SDS011;5554;55.796;13.090;2022-08-04T15:47:36;14.77;;;14.38;;
11002;SDS011;5554;55.796;13.090;2022-08-04T15:50:05;15.27;;;14.88;;
11002;SDS011;5554;55.796;13.090;2022-08-04T15:55:41;14.60;;;14.20;;
11002;SDS011;5554;55.796;13.090;2022-08-04T15:58:22;14.82;;;14.43;;